sensor_id;sensor_type;location;lat;lon;timestamp;pressure;altitude;pressure_sealevel;temperature;humidity
25638;BME280;13496;51.040;13.680;2023-04-30T00:01:46;100086.66;;;18.98;49.73
25638;BME280;13496;51.040;13.680;2023-04-30T00:06:48;100084.22;;;18.96;49.54
25638;BME280;13496;51.040;13.680;2023-04-30T00:11:50;100091.31;;;18.96;49.72
25638;BME280;13496;51.040;13.680;2023-04-30T00:16:51;100094.75;;;18.96;49.46
25638;BME280;13496;51.040;13.680;2023-04-30T00:21:53;100105.28;;;18.96;49.72
25638;BME280;13496;51.040;13.680;2023-04-30T00:26:55;100108.06;;;18.95;49.63
25638;BME280;13496;51.040;13.680;2023-04-30T00:31:56;100102.81;;;18.95;49.59
25638;BME280;13496;51.040;13.680;2023-04-30T00:36:58;100111.69;;;18.94;49.49
25638;BME280;13496;51.040;13.680;2023-04-30T00:42:00;100113.31;;;18.95;49.58
25638;BME280;13496;51.040;13.680;2023-04-30T00:47:03;100120.59;;;18.93;49.43
25638;BME280;13496;51.040;13.680;2023-04-30T00:52:04;100127.47;;;18.94;49.69
25638;BME280;13496;51.040;13.680;2023-04-30T00:57:06;100123.41;;;18.91;49.85
25638;BME280;13496;51.040;13.680;2023-04-30T01:02:11;100132.28;;;18.90;49.73
25638;BME280;13496;51.040;13.680;2023-04-30T01:07:13;100129.47;;;18.92;49.40
25638;BME280;13496;51.040;13.680;2023-04-30T01:12:37;100141.97;;;18.90;49.72
25638;BME280;13496;51.040;13.680;2023-04-30T01:17:55;100143.59;;;18.91;49.86
25638;BME280;13496;51.040;13.680;2023-04-30T01:23:10;100145.63;;;18.89;49.73
25638;BME280;13496;51.040;13.680;2023-04-30T01:28:15;100151.22;;;18.85;49.61
25638;BME280;13496;51.040;13.680;2023-04-30T01:33:17;100159.94;;;18.86;49.19
25638;BME280;13496;51.040;13.680;2023-04-30T01:38:30;100168.63;;;18.86;49.61
25638;BME280;13496;51.040;13.680;2023-04-30T01:43:38;100168.00;;;18.84;49.58
25638;BME280;13496;51.040;13.680;2023-04-30T01:53:57;100183.94;;;18.83;49.73
25638;BME280;13496;51.040;13.680;2023-04-30T01:59:04;100188.38;;;18.82;49.81
25638;BME280;13496;51.040;13.680;2023-04-30T02:04:06;100199.91;;;18.81;50.06
25638;BME280;13496;51.040;13.680;2023-04-30T02:09:08;100210.59;;;18.80;49.80
25638;BME280;13496;51.040;13.680;2023-04-30T02:14:11;100218.47;;;18.80;49.92
25638;BME280;13496;51.040;13.680;2023-04-30T02:19:12;100228.38;;;18.78;49.60
25638;BME280;13496;51.040;13.680;2023-04-30T02:24:14;100245.75;;;18.79;49.82
25638;BME280;13496;51.040;13.680;2023-04-30T02:29:16;100247.75;;;18.77;49.99
25638;BME280;13496;51.040;13.680;2023-04-30T02:34:17;100242.66;;;18.75;50.02
25638;BME280;13496;51.040;13.680;2023-04-30T02:39:20;100257.63;;;18.75;50.04
25638;BME280;13496;51.040;13.680;2023-04-30T02:44:21;100257.97;;;18.72;49.75
25638;BME280;13496;51.040;13.680;2023-04-30T02:49:23;100257.16;;;18.71;50.01
25638;BME280;13496;51.040;13.680;2023-04-30T02:54:25;100269.31;;;18.72;49.79
25638;BME280;13496;51.040;13.680;2023-04-30T02:59:26;100273.91;;;18.70;49.61
25638;BME280;13496;51.040;13.680;2023-04-30T03:04:28;100277.53;;;18.69;49.61
25638;BME280;13496;51.040;13.680;2023-04-30T03:09:30;100280.31;;;18.68;49.99
25638;BME280;13496;51.040;13.680;2023-04-30T03:14:32;100285.56;;;18.68;49.71
25638;BME280;13496;51.040;13.680;2023-04-30T03:19:34;100289.22;;;18.67;49.76
25638;BME280;13496;51.040;13.680;2023-04-30T03:24:36;100295.28;;;18.67;49.58
25638;BME280;13496;51.040;13.680;2023-04-30T03:29:37;100304.50;;;18.63;49.96
25638;BME280;13496;51.040;13.680;2023-04-30T03:34:39;100305.16;;;18.65;49.73
25638;BME280;13496;51.040;13.680;2023-04-30T03:39:41;100311.72;;;18.61;49.75
25638;BME280;13496;51.040;13.680;2023-04-30T03:44:42;100317.84;;;18.61;49.96
25638;BME280;13496;51.040;13.680;2023-04-30T03:49:44;100321.28;;;18.62;49.71
25638;BME280;13496;51.040;13.680;2023-04-30T03:54:46;100322.25;;;18.61;49.56
25638;BME280;13496;51.040;13.680;2023-04-30T03:59:49;100331.13;;;18.60;49.59
25638;BME280;13496;51.040;13.680;2023-04-30T04:04:51;100337.53;;;18.57;49.92
25638;BME280;13496;51.040;13.680;2023-04-30T04:09:53;100339.34;;;18.57;49.73
25638;BME280;13496;51.040;13.680;2023-04-30T04:14:55;100347.72;;;18.60;49.83
25638;BME280;13496;51.040;13.680;2023-04-30T04:19:57;100346.91;;;18.60;49.77
25638;BME280;13496;51.040;13.680;2023-04-30T04:25:00;100354.97;;;18.58;49.78
25638;BME280;13496;51.040;13.680;2023-04-30T04:30:03;100363.47;;;18.60;49.68
25638;BME280;13496;51.040;13.680;2023-04-30T04:35:05;100374.19;;;18.59;49.88
25638;BME280;13496;51.040;13.680;2023-04-30T04:40:09;100377.63;;;18.59;49.72
25638;BME280;13496;51.040;13.680;2023-04-30T04:45:13;100384.69;;;18.59;49.89
25638;BME280;13496;51.040;13.680;2023-04-30T04:50:16;100386.16;;;18.61;49.72
25638;BME280;13496;51.040;13.680;2023-04-30T04:55:18;100394.06;;;18.61;49.69
25638;BME280;13496;51.040;13.680;2023-04-30T05:00:20;100397.50;;;18.62;49.75
25638;BME280;13496;51.040;13.680;2023-04-30T05:05:23;100394.88;;;18.62;49.60
25638;BME280;13496;51.040;13.680;2023-04-30T05:10:25;100408.63;;;18.64;49.48
25638;BME280;13496;51.040;13.680;2023-04-30T05:15:27;100411.25;;;18.64;49.51
25638;BME280;13496;51.040;13.680;2023-04-30T05:20:28;100424.25;;;18.66;49.58
25638;BME280;13496;51.040;13.680;2023-04-30T05:25:30;100428.31;;;18.68;49.43
25638;BME280;13496;51.040;13.680;2023-04-30T05:30:32;100426.69;;;18.67;49.19
25638;BME280;13496;51.040;13.680;2023-04-30T05:35:33;100436.88;;;18.70;49.39
25638;BME280;13496;51.040;13.680;2023-04-30T05:40:36;100434.25;;;18.70;49.59
25638;BME280;13496;51.040;13.680;2023-04-30T05:45:38;100434.09;;;18.72;50.03
25638;BME280;13496;51.040;13.680;2023-04-30T05:50:39;100436.22;;;18.76;50.19
25638;BME280;13496;51.040;13.680;2023-04-30T05:55:41;100447.56;;;18.77;49.85
25638;BME280;13496;51.040;13.680;2023-04-30T06:00:43;100447.03;;;18.81;49.61
25638;BME280;13496;51.040;13.680;2023-04-30T06:05:47;100447.66;;;18.83;50.07
25638;BME280;13496;51.040;13.680;2023-04-30T06:10:49;100447.97;;;18.89;49.47
25638;BME280;13496;51.040;13.680;2023-04-30T06:15:51;100455.53;;;18.92;49.77
25638;BME280;13496;51.040;13.680;2023-04-30T06:20:53;100456.34;;;18.92;49.78
25638;BME280;13496;51.040;13.680;2023-04-30T06:25:54;100453.47;;;19.02;49.50
25638;BME280;13496;51.040;13.680;2023-04-30T06:30:56;100454.47;;;19.01;49.78
25638;BME280;13496;51.040;13.680;2023-04-30T06:35:58;100457.59;;;19.04;49.57
25638;BME280;13496;51.040;13.680;2023-04-30T06:41:00;100453.47;;;19.10;49.70
25638;BME280;13496;51.040;13.680;2023-04-30T06:46:02;100456.72;;;19.12;49.69
25638;BME280;13496;51.040;13.680;2023-04-30T06:51:04;100449.94;;;19.18;49.83
25638;BME280;13496;51.040;13.680;2023-04-30T06:56:06;100453.22;;;19.20;49.55
25638;BME280;13496;51.040;13.680;2023-04-30T07:01:08;100449.94;;;19.18;49.46
25638;BME280;13496;51.040;13.680;2023-04-30T07:06:09;100462.56;;;19.22;49.42
25638;BME280;13496;51.040;13.680;2023-04-30T07:11:11;100465.19;;;19.22;49.21
25638;BME280;13496;51.040;13.680;2023-04-30T07:16:13;100462.69;;;19.29;48.92
25638;BME280;13496;51.040;13.680;2023-04-30T07:21:17;100465.59;;;19.34;49.04
25638;BME280;13496;51.040;13.680;2023-04-30T07:26:18;100468.19;;;19.42;48.74
25638;BME280;13496;51.040;13.680;2023-04-30T07:31:21;100468.31;;;19.49;48.20
25638;BME280;13496;51.040;13.680;2023-04-30T07:36:23;100464.66;;;19.50;48.22
25638;BME280;13496;51.040;13.680;2023-04-30T07:41:25;100473.50;;;19.57;48.11
25638;BME280;13496;51.040;13.680;2023-04-30T07:46:26;100477.78;;;19.58;48.25
25638;BME280;13496;51.040;13.680;2023-04-30T07:51:28;100485.03;;;19.56;47.91
25638;BME280;13496;51.040;13.680;2023-04-30T07:56:30;100482.88;;;19.59;48.20
25638;BME280;13496;51.040;13.680;2023-04-30T08:01:32;100486.28;;;19.68;48.06
25638;BME280;13496;51.040;13.680;2023-04-30T08:06:33;100491.03;;;19.73;47.97
25638;BME280;13496;51.040;13.680;2023-04-30T08:11:35;100483.75;;;19.75;47.80
25638;BME280;13496;51.040;13.680;2023-04-30T08:16:37;100484.78;;;19.89;47.47
25638;BME280;13496;51.040;13.680;2023-04-30T08:21:39;100486.22;;;19.76;47.48
25638;BME280;13496;51.040;13.680;2023-04-30T08:26:40;100495.69;;;19.86;47.25
25638;BME280;13496;51.040;13.680;2023-04-30T08:31:42;100505.03;;;19.88;47.72
25638;BME280;13496;51.040;13.680;2023-04-30T08:36:44;100500.59;;;19.89;47.39
25638;BME280;13496;51.040;13.680;2023-04-30T08:41:51;100500.94;;;19.86;47.04
25638;BME280;13496;51.040;13.680;2023-04-30T08:46:56;100499.31;;;19.85;47.51
25638;BME280;13496;51.040;13.680;2023-04-30T08:52:00;100489.31;;;19.95;47.39
25638;BME280;13496;51.040;13.680;2023-04-30T08:57:02;100494.19;;;20.06;46.77
25638;BME280;13496;51.040;13.680;2023-04-30T09:02:05;100505.13;;;19.95;47.14
25638;BME280;13496;51.040;13.680;2023-04-30T09:07:07;100492.72;;;20.03;46.61
25638;BME280;13496;51.040;13.680;2023-04-30T09:12:10;100499.69;;;19.96;47.18
25638;BME280;13496;51.040;13.680;2023-04-30T09:17:20;100491.59;;;19.98;46.77
25638;BME280;13496;51.040;13.680;2023-04-30T09:22:23;100499.63;;;20.04;46.57
25638;BME280;13496;51.040;13.680;2023-04-30T09:27:25;100504.53;;;20.08;46.43
25638;BME280;13496;51.040;13.680;2023-04-30T09:32:27;100511.16;;;20.03;46.62
25638;BME280;13496;51.040;13.680;2023-04-30T09:37:38;100495.50;;;20.02;46.50
25638;BME280;13496;51.040;13.680;2023-04-30T09:42:46;100495.03;;;20.21;46.72
25638;BME280;13496;51.040;13.680;2023-04-30T09:47:59;100485.84;;;20.32;46.19
25638;BME280;13496;51.040;13.680;2023-04-30T09:53:05;100490.72;;;20.20;46.67
25638;BME280;13496;51.040;13.680;2023-04-30T09:58:10;100485.31;;;20.37;46.40
25638;BME280;13496;51.040;13.680;2023-04-30T10:03:13;100474.84;;;20.28;46.01
25638;BME280;13496;51.040;13.680;2023-04-30T10:08:23;100477.28;;;20.30;46.27
25638;BME280;13496;51.040;13.680;2023-04-30T10:13:28;100473.56;;;20.24;46.62
25638;BME280;13496;51.040;13.680;2023-04-30T10:18:34;100475.84;;;20.42;46.42
25638;BME280;13496;51.040;13.680;2023-04-30T10:23:38;100475.66;;;20.29;46.11
25638;BME280;13496;51.040;13.680;2023-04-30T10:28:41;100461.78;;;20.50;45.59
25638;BME280;13496;51.040;13.680;2023-04-30T10:33:50;100462.06;;;20.55;45.63
25638;BME280;13496;51.040;13.680;2023-04-30T10:38:55;100460.22;;;20.41;45.92
25638;BME280;13496;51.040;13.680;2023-04-30T10:44:01;100456.78;;;20.55;45.68
25638;BME280;13496;51.040;13.680;2023-04-30T10:49:03;100456.03;;;20.61;45.61
25638;BME280;13496;51.040;13.680;2023-04-30T10:54:04;100451.28;;;20.71;45.48
25638;BME280;13496;51.040;13.680;2023-04-30T10:59:07;100437.50;;;20.69;45.69
25638;BME280;13496;51.040;13.680;2023-04-30T11:04:10;100447.03;;;20.70;45.57
25638;BME280;13496;51.040;13.680;2023-04-30T11:09:12;100447.41;;;20.67;45.61
25638;BME280;13496;51.040;13.680;2023-04-30T11:14:19;100443.25;;;20.58;45.76
25638;BME280;13496;51.040;13.680;2023-04-30T11:19:21;100430.88;;;20.59;45.04
25638;BME280;13496;51.040;13.680;2023-04-30T11:24:53;100427.13;;;20.68;45.92
25638;BME280;13496;51.040;13.680;2023-04-30T11:29:56;100421.03;;;20.67;45.49
25638;BME280;13496;51.040;13.680;2023-04-30T11:34:59;100430.09;;;20.79;45.41
25638;BME280;13496;51.040;13.680;2023-04-30T11:40:03;100428.53;;;20.85;45.87
25638;BME280;13496;51.040;13.680;2023-04-30T11:45:10;100427.31;;;21.02;44.70
25638;BME280;13496;51.040;13.680;2023-04-30T11:50:14;100437.25;;;20.86;45.10
25638;BME280;13496;51.040;13.680;2023-04-30T11:55:18;100413.41;;;20.94;44.75
25638;BME280;13496;51.040;13.680;2023-04-30T12:00:29;100421.13;;;21.17;44.54
25638;BME280;13496;51.040;13.680;2023-04-30T12:05:31;100413.78;;;21.12;44.17
25638;BME280;13496;51.040;13.680;2023-04-30T12:10:34;100398.69;;;21.06;44.16
25638;BME280;13496;51.040;13.680;2023-04-30T12:15:36;100395.88;;;21.08;44.04
25638;BME280;13496;51.040;13.680;2023-04-30T12:20:40;100412.34;;;21.10;44.96
25638;BME280;13496;51.040;13.680;2023-04-30T12:25:42;100397.06;;;21.05;44.58
25638;BME280;13496;51.040;13.680;2023-04-30T12:30:44;100395.44;;;21.04;44.71
25638;BME280;13496;51.040;13.680;2023-04-30T12:35:46;100397.66;;;21.00;45.31
25638;BME280;13496;51.040;13.680;2023-04-30T12:40:48;100389.00;;;21.07;45.20
25638;BME280;13496;51.040;13.680;2023-04-30T12:45:50;100378.03;;;21.10;45.11
25638;BME280;13496;51.040;13.680;2023-04-30T12:50:58;100388.59;;;21.10;44.07
25638;BME280;13496;51.040;13.680;2023-04-30T13:01:15;100369.13;;;21.11;44.35
25638;BME280;13496;51.040;13.680;2023-04-30T13:06:17;100372.00;;;21.16;43.64
25638;BME280;13496;51.040;13.680;2023-04-30T13:11:19;100358.19;;;21.14;45.36
25638;BME280;13496;51.040;13.680;2023-04-30T13:16:20;100355.56;;;21.14;45.34
25638;BME280;13496;51.040;13.680;2023-04-30T13:21:23;100364.28;;;21.14;44.33
25638;BME280;13496;51.040;13.680;2023-04-30T13:26:25;100346.28;;;21.24;44.74
25638;BME280;13496;51.040;13.680;2023-04-30T13:31:27;100341.22;;;21.23;44.21
25638;BME280;13496;51.040;13.680;2023-04-30T13:36:28;100335.50;;;21.19;45.22
25638;BME280;13496;51.040;13.680;2023-04-30T13:41:30;100343.28;;;21.27;44.89
25638;BME280;13496;51.040;13.680;2023-04-30T13:46:32;100339.38;;;21.23;43.77
25638;BME280;13496;51.040;13.680;2023-04-30T13:51:34;100331.91;;;21.27;44.50
25638;BME280;13496;51.040;13.680;2023-04-30T13:56:35;100328.88;;;21.30;44.96
25638;BME280;13496;51.040;13.680;2023-04-30T14:01:37;100325.06;;;21.33;43.45
25638;BME280;13496;51.040;13.680;2023-04-30T14:06:39;100324.25;;;21.32;43.99
25638;BME280;13496;51.040;13.680;2023-04-30T14:11:41;100319.59;;;21.34;43.61
25638;BME280;13496;51.040;13.680;2023-04-30T14:16:43;100317.00;;;21.41;44.15
25638;BME280;13496;51.040;13.680;2023-04-30T14:21:45;100308.88;;;21.42;43.69
25638;BME280;13496;51.040;13.680;2023-04-30T14:26:47;100315.81;;;21.43;44.80
25638;BME280;13496;51.040;13.680;2023-04-30T14:31:48;100297.56;;;21.48;44.56
25638;BME280;13496;51.040;13.680;2023-04-30T14:36:50;100296.16;;;21.53;44.01
25638;BME280;13496;51.040;13.680;2023-04-30T14:41:52;100290.25;;;21.50;42.85
25638;BME280;13496;51.040;13.680;2023-04-30T14:46:54;100291.09;;;21.51;42.71
25638;BME280;13496;51.040;13.680;2023-04-30T14:51:55;100288.88;;;21.55;42.27
25638;BME280;13496;51.040;13.680;2023-04-30T14:56:58;100283.41;;;21.56;43.46
25638;BME280;13496;51.040;13.680;2023-04-30T15:01:59;100283.41;;;21.56;43.08
25638;BME280;13496;51.040;13.680;2023-04-30T15:07:01;100274.72;;;21.62;42.76
25638;BME280;13496;51.040;13.680;2023-04-30T15:12:03;100280.97;;;21.61;41.57
25638;BME280;13496;51.040;13.680;2023-04-30T15:17:05;100278.59;;;21.66;42.67
25638;BME280;13496;51.040;13.680;2023-04-30T15:22:07;100275.31;;;21.64;43.82
25638;BME280;13496;51.040;13.680;2023-04-30T15:27:08;100270.84;;;21.65;42.46
25638;BME280;13496;51.040;13.680;2023-04-30T15:32:11;100272.06;;;21.69;43.50
25638;BME280;13496;51.040;13.680;2023-04-30T15:37:12;100275.72;;;21.68;41.38
25638;BME280;13496;51.040;13.680;2023-04-30T15:42:14;100273.28;;;21.66;41.14
25638;BME280;13496;51.040;13.680;2023-04-30T15:47:16;100279.63;;;21.72;42.67
25638;BME280;13496;51.040;13.680;2023-04-30T15:52:17;100281.06;;;21.74;42.49
25638;BME280;13496;51.040;13.680;2023-04-30T15:57:19;100263.16;;;21.77;42.23
25638;BME280;13496;51.040;13.680;2023-04-30T16:02:21;100268.06;;;21.80;43.48
25638;BME280;13496;51.040;13.680;2023-04-30T16:07:23;100264.22;;;21.82;42.50
25638;BME280;13496;51.040;13.680;2023-04-30T16:12:25;100259.56;;;21.84;41.71
25638;BME280;13496;51.040;13.680;2023-04-30T16:17:27;100253.88;;;21.87;42.69
25638;BME280;13496;51.040;13.680;2023-04-30T16:22:29;100251.03;;;21.89;43.00
25638;BME280;13496;51.040;13.680;2023-04-30T16:27:31;100256.13;;;21.90;42.46
25638;BME280;13496;51.040;13.680;2023-04-30T16:32:33;100251.47;;;21.92;43.43
25638;BME280;13496;51.040;13.680;2023-04-30T16:37:34;100244.34;;;21.93;42.17
25638;BME280;13496;51.040;13.680;2023-04-30T16:42:36;100247.59;;;21.95;42.53
25638;BME280;13496;51.040;13.680;2023-04-30T16:47:38;100237.03;;;21.95;42.08
25638;BME280;13496;51.040;13.680;2023-04-30T16:52:40;100238.66;;;21.89;41.63
25638;BME280;13496;51.040;13.680;2023-04-30T16:57:43;100227.47;;;21.94;42.42
25638;BME280;13496;51.040;13.680;2023-04-30T17:02:44;100228.09;;;21.89;41.32
25638;BME280;13496;51.040;13.680;2023-04-30T17:07:49;100238.03;;;21.94;42.36
25638;BME280;13496;51.040;13.680;2023-04-30T17:12:50;100229.94;;;21.95;42.48
25638;BME280;13496;51.040;13.680;2023-04-30T17:17:52;100234.38;;;21.95;42.54
25638;BME280;13496;51.040;13.680;2023-04-30T17:22:54;100236.03;;;21.96;42.49
25638;BME280;13496;51.040;13.680;2023-04-30T17:27:56;100239.50;;;21.96;43.29
25638;BME280;13496;51.040;13.680;2023-04-30T17:33:01;100243.34;;;21.94;43.04
25638;BME280;13496;51.040;13.680;2023-04-30T17:38:04;100241.72;;;21.93;42.82
25638;BME280;13496;51.040;13.680;2023-04-30T17:43:06;100243.72;;;21.91;42.55
25638;BME280;13496;51.040;13.680;2023-04-30T17:48:08;100242.91;;;21.90;42.96
25638;BME280;13496;51.040;13.680;2023-04-30T17:53:10;100244.94;;;21.88;42.93
25638;BME280;13496;51.040;13.680;2023-04-30T17:58:12;100245.34;;;21.85;42.56
25638;BME280;13496;51.040;13.680;2023-04-30T18:03:14;100248.16;;;21.84;43.73
25638;BME280;13496;51.040;13.680;2023-04-30T18:08:16;100248.97;;;21.78;43.45
25638;BME280;13496;51.040;13.680;2023-04-30T18:13:17;100257.28;;;21.74;43.65
25638;BME280;13496;51.040;13.680;2023-04-30T18:18:19;100261.13;;;21.72;44.41
25638;BME280;13496;51.040;13.680;2023-04-30T18:23:21;100257.06;;;21.69;44.31
25638;BME280;13496;51.040;13.680;2023-04-30T18:28:23;100252.16;;;21.66;44.26
25638;BME280;13496;51.040;13.680;2023-04-30T18:33:25;100257.03;;;21.63;44.79
25638;BME280;13496;51.040;13.680;2023-04-30T18:38:28;100255.59;;;21.60;44.74
25638;BME280;13496;51.040;13.680;2023-04-30T18:43:30;100261.25;;;21.57;45.16
25638;BME280;13496;51.040;13.680;2023-04-30T18:48:32;100261.47;;;21.56;44.80
25638;BME280;13496;51.040;13.680;2023-04-30T18:53:34;100267.94;;;21.53;45.00
25638;BME280;13496;51.040;13.680;2023-04-30T18:58:37;100266.50;;;21.50;45.16
25638;BME280;13496;51.040;13.680;2023-04-30T19:03:40;100273.00;;;21.48;44.88
25638;BME280;13496;51.040;13.680;2023-04-30T19:08:41;100267.88;;;21.46;45.32
25638;BME280;13496;51.040;13.680;2023-04-30T19:13:43;100269.94;;;21.44;45.22
25638;BME280;13496;51.040;13.680;2023-04-30T19:18:45;100265.84;;;21.42;45.28
25638;BME280;13496;51.040;13.680;2023-04-30T19:23:46;100267.88;;;21.40;45.54
25638;BME280;13496;51.040;13.680;2023-04-30T19:28:48;100267.25;;;21.38;45.68
25638;BME280;13496;51.040;13.680;2023-04-30T19:33:50;100277.38;;;21.34;45.74
25638;BME280;13496;51.040;13.680;2023-04-30T19:38:51;100282.81;;;21.33;45.17
25638;BME280;13496;51.040;13.680;2023-04-30T19:43:53;100269.00;;;21.31;45.29
25638;BME280;13496;51.040;13.680;2023-04-30T19:48:56;100276.31;;;21.29;45.72
25638;BME280;13496;51.040;13.680;2023-04-30T19:53:57;100289.66;;;21.27;45.74
25638;BME280;13496;51.040;13.680;2023-04-30T19:58:59;100286.44;;;21.25;45.84
25638;BME280;13496;51.040;13.680;2023-04-30T20:04:01;100292.91;;;21.22;45.57
25638;BME280;13496;51.040;13.680;2023-04-30T20:09:03;100288.00;;;21.19;45.77
25638;BME280;13496;51.040;13.680;2023-04-30T20:14:05;100284.75;;;21.17;45.91
25638;BME280;13496;51.040;13.680;2023-04-30T20:19:07;100285.94;;;21.15;46.27
25638;BME280;13496;51.040;13.680;2023-04-30T20:24:10;100287.94;;;21.13;46.05
25638;BME280;13496;51.040;13.680;2023-04-30T20:29:12;100282.88;;;21.11;45.95
25638;BME280;13496;51.040;13.680;2023-04-30T20:34:13;100278.78;;;21.09;46.29
25638;BME280;13496;51.040;13.680;2023-04-30T20:39:15;100277.16;;;21.08;45.98
25638;BME280;13496;51.040;13.680;2023-04-30T20:44:17;100268.81;;;21.04;46.17
25638;BME280;13496;51.040;13.680;2023-04-30T20:49:19;100275.91;;;21.03;45.96
25638;BME280;13496;51.040;13.680;2023-04-30T20:54:21;100269.19;;;21.01;46.61
25638;BME280;13496;51.040;13.680;2023-04-30T20:59:22;100266.75;;;20.99;46.11
25638;BME280;13496;51.040;13.680;2023-04-30T21:04:24;100263.47;;;20.97;46.09
25638;BME280;13496;51.040;13.680;2023-04-30T21:09:26;100270.56;;;20.97;45.96
25638;BME280;13496;51.040;13.680;2023-04-30T21:14:28;100274.41;;;20.94;45.55
25638;BME280;13496;51.040;13.680;2023-04-30T21:19:30;100276.44;;;20.92;45.99
25638;BME280;13496;51.040;13.680;2023-04-30T21:24:34;100268.88;;;20.89;45.48
25638;BME280;13496;51.040;13.680;2023-04-30T21:29:35;100273.34;;;20.89;45.92
25638;BME280;13496;51.040;13.680;2023-04-30T21:34:37;100273.72;;;20.86;45.70
25638;BME280;13496;51.040;13.680;2023-04-30T21:39:39;100272.28;;;20.83;45.76
25638;BME280;13496;51.040;13.680;2023-04-30T21:44:41;100275.13;;;20.82;45.64
25638;BME280;13496;51.040;13.680;2023-04-30T21:49:42;100267.38;;;20.80;45.49
25638;BME280;13496;51.040;13.680;2023-04-30T21:54:47;100262.50;;;20.77;45.68
25638;BME280;13496;51.040;13.680;2023-04-30T21:59:49;100267.94;;;20.75;45.90
25638;BME280;13496;51.040;13.680;2023-04-30T22:04:51;100268.31;;;20.72;45.53
25638;BME280;13496;51.040;13.680;2023-04-30T22:09:54;100264.06;;;20.71;46.08
25638;BME280;13496;51.040;13.680;2023-04-30T22:14:56;100259.16;;;20.68;45.94
25638;BME280;13496;51.040;13.680;2023-04-30T22:19:58;100250.66;;;20.66;45.61
25638;BME280;13496;51.040;13.680;2023-04-30T22:25:00;100247.38;;;20.64;46.14
25638;BME280;13496;51.040;13.680;2023-04-30T22:30:02;100235.19;;;20.63;46.04
25638;BME280;13496;51.040;13.680;2023-04-30T22:35:05;100244.28;;;20.61;46.19
25638;BME280;13496;51.040;13.680;2023-04-30T22:40:08;100230.50;;;20.59;45.88
25638;BME280;13496;51.040;13.680;2023-04-30T22:45:10;100228.25;;;20.56;45.71
25638;BME280;13496;51.040;13.680;2023-04-30T22:50:12;100224.53;;;20.50;46.05
25638;BME280;13496;51.040;13.680;2023-04-30T22:55:14;100232.59;;;20.48;46.27
25638;BME280;13496;51.040;13.680;2023-04-30T23:00:16;100231.34;;;20.44;46.48
25638;BME280;13496;51.040;13.680;2023-04-30T23:05:24;100221.53;;;20.38;46.56
25638;BME280;13496;51.040;13.680;2023-04-30T23:10:26;100219.13;;;20.37;46.43
25638;BME280;13496;51.040;13.680;2023-04-30T23:15:28;100214.81;;;20.36;46.63
25638;BME280;13496;51.040;13.680;2023-04-30T23:20:30;100215.22;;;20.33;46.36
25638;BME280;13496;51.040;13.680;2023-04-30T23:25:31;100218.22;;;20.29;46.55
25638;BME280;13496;51.040;13.680;2023-04-30T23:30:36;100216.41;;;20.30;46.27
25638;BME280;13496;51.040;13.680;2023-04-30T23:35:40;100211.69;;;20.25;46.31
25638;BME280;13496;51.040;13.680;2023-04-30T23:40:43;100212.69;;;20.24;46.32
25638;BME280;13496;51.040;13.680;2023-04-30T23:45:44;100199.91;;;20.21;46.80
25638;BME280;13496;51.040;13.680;2023-04-30T23:50:46;100199.91;;;20.21;46.74
25638;BME280;13496;51.040;13.680;2023-04-30T23:55:48;100196.03;;;20.17;46.38
